createdAt,value
2018-08-04T00:01:55.801Z,16.30
2018-08-04T00:04:24.312Z,14.80
2018-08-04T00:06:52.837Z,15.30
2018-08-04T00:09:21.378Z,17.17
2018-08-04T00:11:50.130Z,17.23
2018-08-04T00:14:18.656Z,16.83
2018-08-04T00:16:47.183Z,16.70
2018-08-04T00:19:15.695Z,15.73
2018-08-04T00:21:44.201Z,16.07
2018-08-04T00:24:12.833Z,15.93
2018-08-04T00:26:41.331Z,15.40
2018-08-04T00:29:09.827Z,16.87
2018-08-04T00:31:44.716Z,16.77
2018-08-04T00:34:13.275Z,17.73
2018-08-04T00:36:41.510Z,17.80
2018-08-04T00:39:10.125Z,16.73
2018-08-04T00:41:38.779Z,16.93
2018-08-04T00:44:07.335Z,15.93
2018-08-04T00:46:35.511Z,16.17
2018-08-04T00:49:03.719Z,15.83
2018-08-04T00:51:32.206Z,19.07
2018-08-04T00:54:00.681Z,17.63
2018-08-04T00:56:29.289Z,18.23
2018-08-04T00:58:57.771Z,17.50
2018-08-04T01:01:26.256Z,16.50
2018-08-04T01:03:54.746Z,17.00
2018-08-04T01:06:23.226Z,16.20
2018-08-04T01:08:51.824Z,16.90
2018-08-04T01:11:20.366Z,16.97
2018-08-04T01:13:48.587Z,15.43
2018-08-04T01:16:17.032Z,15.43
2018-08-04T01:18:45.654Z,17.70
2018-08-04T01:21:14.135Z,15.10
2018-08-04T01:23:42.623Z,16.10
2018-08-04T01:26:11.107Z,17.00
2018-08-04T01:28:39.594Z,16.87
2018-08-04T01:31:08.079Z,16.97
2018-08-04T01:33:36.772Z,16.20
2018-08-04T01:36:05.340Z,15.33
2018-08-04T01:38:33.836Z,15.83
2018-08-04T01:41:02.382Z,15.10
2018-08-04T01:43:30.916Z,16.07
2018-08-04T01:45:59.475Z,17.50
2018-08-04T01:48:27.992Z,15.90
2018-08-04T01:50:56.542Z,16.87
2018-08-04T01:53:24.741Z,15.73
2018-08-04T01:55:53.347Z,15.60
2018-08-04T01:58:21.897Z,15.63
2018-08-04T02:00:50.395Z,16.53
2018-08-04T02:03:18.909Z,15.67
2018-08-04T02:05:47.411Z,18.33
2018-08-04T02:08:15.913Z,15.37
2018-08-04T02:10:44.401Z,17.90
2018-08-04T02:13:12.937Z,17.70
2018-08-04T02:15:41.130Z,16.90
2018-08-04T02:18:10.385Z,16.60
2018-08-04T02:20:38.933Z,16.50
2018-08-04T02:23:07.471Z,16.40
2018-08-04T02:25:36.131Z,17.60
2018-08-04T02:28:04.770Z,19.10
2018-08-04T02:30:33.288Z,17.83
2018-08-04T02:33:01.777Z,16.90
2018-08-04T02:35:30.222Z,16.33
2018-08-04T02:37:58.727Z,18.07
2018-08-04T02:40:27.270Z,18.60
2018-08-04T02:42:55.800Z,16.40
2018-08-04T02:45:24.276Z,16.13
2018-08-04T02:47:52.844Z,17.63
2018-08-04T02:50:21.304Z,16.70
2018-08-04T02:52:49.755Z,16.00
2018-08-04T02:55:18.332Z,15.77
2018-08-04T02:57:46.871Z,16.60
2018-08-04T03:00:15.381Z,15.77
2018-08-04T03:02:43.685Z,16.80
2018-08-04T03:05:12.171Z,15.50
2018-08-04T03:07:40.643Z,16.10
2018-08-04T03:10:09.241Z,17.27
2018-08-04T03:12:37.714Z,16.60
2018-08-04T03:15:06.335Z,16.77
2018-08-04T03:17:34.830Z,19.00
2018-08-04T03:20:03.291Z,17.30
2018-08-04T03:22:31.754Z,18.90
2018-08-04T03:25:00.365Z,16.50
2018-08-04T03:27:28.824Z,17.97
2018-08-04T03:29:57.275Z,18.30
2018-08-04T03:32:25.802Z,18.03
2018-08-04T03:34:53.991Z,17.50
2018-08-04T03:37:22.470Z,15.80
2018-08-04T03:39:50.988Z,17.80
2018-08-04T03:42:19.512Z,17.53
2018-08-04T03:44:47.976Z,17.17
2018-08-04T03:47:17.144Z,16.90
2018-08-04T03:49:45.634Z,18.10
2018-08-04T03:52:14.224Z,19.80
2018-08-04T03:54:42.808Z,18.83
2018-08-04T03:57:11.396Z,18.53
2018-08-04T03:59:40.313Z,20.57
2018-08-04T04:02:08.905Z,20.07
2018-08-04T04:04:37.388Z,18.57
2018-08-04T04:07:06.415Z,18.00
2018-08-04T04:09:34.961Z,21.13
2018-08-04T04:12:03.612Z,20.20
2018-08-04T04:14:32.120Z,21.50
2018-08-04T04:17:00.698Z,20.77
2018-08-04T04:19:29.376Z,18.00
2018-08-04T04:21:57.875Z,17.53
2018-08-04T04:24:26.475Z,19.60
2018-08-04T04:26:55.140Z,17.33
2018-08-04T04:29:23.611Z,18.37
2018-08-04T04:31:52.240Z,18.97
2018-08-04T04:34:20.829Z,19.17
2018-08-04T04:36:49.354Z,19.07
2018-08-04T04:39:17.815Z,19.90
2018-08-04T04:41:46.254Z,20.10
2018-08-04T04:44:14.711Z,22.30
2018-08-04T04:46:43.199Z,21.87
2018-08-04T04:49:12.967Z,21.93
2018-08-04T04:51:42.347Z,20.73
2018-08-04T04:54:11.066Z,20.80
2018-08-04T04:56:39.622Z,21.70
2018-08-04T04:59:08.244Z,22.10
2018-08-04T05:01:36.829Z,21.53
2018-08-04T05:04:05.799Z,21.10
2018-08-04T05:06:34.315Z,24.83
2018-08-04T05:09:03.529Z,23.50
2018-08-04T05:11:32.153Z,22.57
2018-08-04T05:14:00.737Z,22.97
2018-08-04T05:16:29.279Z,22.60
2018-08-04T05:18:57.866Z,23.73
2018-08-04T05:21:26.334Z,20.73
2018-08-04T05:23:54.858Z,22.23
2018-08-04T05:26:23.319Z,22.40
2018-08-04T05:28:51.787Z,21.83
2018-08-04T05:31:19.956Z,21.93
2018-08-04T05:33:48.507Z,21.80
2018-08-04T05:36:17.038Z,21.03
2018-08-04T05:38:45.532Z,20.20
2018-08-04T05:41:14.013Z,20.67
2018-08-04T05:43:42.585Z,20.47
2018-08-04T05:46:11.075Z,21.10
2018-08-04T05:48:39.558Z,20.53
2018-08-04T05:51:08.172Z,21.77
2018-08-04T05:53:36.762Z,20.70
2018-08-04T05:56:05.541Z,21.00
2018-08-04T05:58:34.036Z,19.43
2018-08-04T06:01:02.513Z,20.90
2018-08-04T06:03:30.982Z,20.20
2018-08-04T06:05:59.458Z,19.93
2018-08-04T06:08:27.969Z,21.23
2018-08-04T06:10:56.484Z,19.73
2018-08-04T06:13:25.044Z,18.93
2018-08-04T06:15:53.523Z,21.63
2018-08-04T06:18:21.985Z,20.13
2018-08-04T06:20:50.517Z,22.30
2018-08-04T06:23:19.043Z,20.43
2018-08-04T06:25:47.537Z,22.90
2018-08-04T06:28:16.215Z,21.97
2018-08-04T06:30:44.871Z,20.47
2018-08-04T06:33:13.461Z,22.20
2018-08-04T06:35:42.049Z,20.80
2018-08-04T06:38:10.623Z,22.93
2018-08-04T06:40:39.126Z,21.70
2018-08-04T06:43:07.588Z,19.60
2018-08-04T06:45:36.201Z,20.20
2018-08-04T06:48:04.985Z,21.00
2018-08-04T06:50:33.578Z,19.80
2018-08-04T06:53:02.491Z,22.20
2018-08-04T06:55:31.059Z,20.40
2018-08-04T06:57:59.584Z,21.53
2018-08-04T07:00:28.091Z,19.97
2018-08-04T07:02:56.684Z,19.50
2018-08-04T07:05:24.840Z,20.40
2018-08-04T07:07:53.389Z,19.80
2018-08-04T07:10:21.938Z,18.97
2018-08-04T07:12:50.390Z,20.57
2018-08-04T07:15:18.898Z,21.00
2018-08-04T07:17:47.533Z,19.93
2018-08-04T07:20:16.128Z,21.00
2018-08-04T07:22:44.640Z,20.07
2018-08-04T07:25:13.126Z,19.13
2018-08-04T07:27:41.574Z,16.87
2018-08-04T07:30:12.511Z,17.00
2018-08-04T07:32:41.906Z,16.33
2018-08-04T07:35:10.512Z,17.40
2018-08-04T07:37:39.535Z,16.60
2018-08-04T07:40:14.591Z,14.77
2018-08-04T07:42:43.115Z,14.23
2018-08-04T07:45:11.584Z,16.60
2018-08-04T07:47:40.245Z,16.23
2018-08-04T07:50:09.001Z,16.77
2018-08-04T07:52:37.752Z,15.37
2018-08-04T07:55:06.876Z,15.27
2018-08-04T07:57:35.405Z,16.60
2018-08-04T08:00:04.693Z,14.70
2018-08-04T08:02:33.270Z,14.63
2018-08-04T08:05:01.824Z,14.97
2018-08-04T08:07:31.024Z,14.67
2018-08-04T08:09:59.518Z,15.10
2018-08-04T08:12:28.031Z,14.50
2018-08-04T08:14:56.617Z,14.93
2018-08-04T08:17:25.124Z,16.40
2018-08-04T08:19:53.669Z,17.00
2018-08-04T08:22:32.025Z,16.67
2018-08-04T08:25:00.513Z,17.30
2018-08-04T08:27:29.032Z,17.30
2018-08-04T08:29:57.205Z,17.77
2018-08-04T08:34:46.650Z,17.40
2018-08-04T08:37:15.209Z,17.47
2018-08-04T08:39:43.674Z,16.37
2018-08-04T08:42:12.774Z,16.20
2018-08-04T08:44:42.053Z,16.20
2018-08-04T08:47:10.631Z,16.50
2018-08-04T08:49:39.163Z,17.00
2018-08-04T08:52:07.672Z,18.87
2018-08-04T08:54:36.219Z,16.60
2018-08-04T08:57:04.780Z,16.10
2018-08-04T08:59:33.246Z,16.70
2018-08-04T09:02:01.796Z,16.73
2018-08-04T09:04:29.993Z,15.70
2018-08-04T09:06:58.478Z,15.10
2018-08-04T09:09:26.984Z,13.97
2018-08-04T09:11:55.692Z,15.87
2018-08-04T09:14:24.172Z,16.90
2018-08-04T09:16:52.685Z,13.83
2018-08-04T09:19:21.241Z,14.30
2018-08-04T09:21:49.741Z,13.67
2018-08-04T09:24:18.307Z,15.03
2018-08-04T09:26:46.805Z,14.70
2018-08-04T09:29:15.368Z,15.50
2018-08-04T09:31:44.077Z,14.30
2018-08-04T09:34:12.565Z,14.23
2018-08-04T09:36:41.144Z,13.83
2018-08-04T09:39:11.857Z,13.50
2018-08-04T09:41:41.040Z,12.20
2018-08-04T09:44:10.079Z,11.70
2018-08-04T09:46:39.608Z,10.83
2018-08-04T09:49:08.102Z,11.70
2018-08-04T09:51:36.950Z,12.90
2018-08-04T09:54:05.513Z,11.13
2018-08-04T09:56:34.016Z,10.80
2018-08-04T09:59:02.528Z,11.80
2018-08-04T10:01:39.301Z,14.60
2018-08-04T10:04:08.396Z,12.50
2018-08-04T10:06:37.090Z,12.33
2018-08-04T10:09:09.109Z,12.90
2018-08-04T10:11:37.646Z,11.80
2018-08-04T10:14:06.411Z,13.00
2018-08-04T10:16:34.952Z,11.97
2018-08-04T10:19:03.438Z,13.10
2018-08-04T10:21:31.911Z,11.93
2018-08-04T10:24:00.483Z,11.10
2018-08-04T10:26:28.995Z,10.77
2018-08-04T10:28:58.034Z,10.03
2018-08-04T10:31:26.661Z,10.13
2018-08-04T10:33:55.143Z,9.10
2018-08-04T10:36:24.099Z,10.00
2018-08-04T10:38:52.686Z,9.90
2018-08-04T10:41:21.196Z,10.27
2018-08-04T10:43:49.687Z,10.97
2018-08-04T10:46:18.192Z,9.10
2018-08-04T10:48:46.711Z,10.00
2018-08-04T10:51:15.219Z,8.47
2018-08-04T10:53:43.411Z,8.80
2018-08-04T10:56:11.885Z,8.93
2018-08-04T10:58:40.379Z,9.13
2018-08-04T11:01:08.727Z,8.37
2018-08-04T11:03:37.391Z,7.63
2018-08-04T11:06:06.069Z,7.40
2018-08-04T11:08:34.639Z,8.10
2018-08-04T11:11:03.091Z,7.10
2018-08-04T11:13:31.565Z,7.30
2018-08-04T11:16:00.113Z,6.80
2018-08-04T11:18:28.883Z,6.70
2018-08-04T11:20:57.045Z,5.90
2018-08-04T11:23:25.670Z,6.40
2018-08-04T11:25:54.139Z,6.83
2018-08-04T11:28:22.660Z,6.70
2018-08-04T11:30:51.169Z,7.20
2018-08-04T11:33:19.898Z,7.00
2018-08-04T11:35:48.404Z,6.97
2018-08-04T11:38:17.307Z,7.00
2018-08-04T11:40:46.167Z,6.57
2018-08-04T11:43:14.322Z,6.57
2018-08-04T11:45:42.818Z,6.70
2018-08-04T11:48:11.319Z,7.00
2018-08-04T11:50:39.807Z,6.23
2018-08-04T11:53:08.309Z,5.87
2018-08-04T11:55:36.793Z,5.50
2018-08-04T11:58:05.287Z,6.60
2018-08-04T12:00:33.887Z,6.00
2018-08-04T12:03:02.346Z,6.07
2018-08-04T12:05:30.949Z,6.20
2018-08-04T12:07:59.102Z,5.93
2018-08-04T12:10:27.613Z,6.87
2018-08-04T12:12:56.120Z,6.10
2018-08-04T12:15:24.690Z,5.90
2018-08-04T12:17:53.789Z,6.20
2018-08-04T12:20:22.878Z,6.40
2018-08-04T12:22:51.408Z,6.47
2018-08-04T12:25:19.875Z,6.00
2018-08-04T12:27:48.411Z,6.70
2018-08-04T12:30:16.900Z,6.63
2018-08-04T12:32:45.367Z,5.90
2018-08-04T12:35:13.894Z,5.53
2018-08-04T12:37:42.371Z,6.47
2018-08-04T12:40:10.976Z,6.43
2018-08-04T12:42:39.500Z,5.70
2018-08-04T12:45:08.459Z,5.40
2018-08-04T12:47:36.952Z,5.17
2018-08-04T12:50:05.911Z,6.13
2018-08-04T12:52:34.078Z,6.90
2018-08-04T12:55:02.610Z,6.80
2018-08-04T12:57:31.094Z,6.30
2018-08-04T12:59:59.664Z,5.90
2018-08-04T13:02:27.846Z,5.87
2018-08-04T13:04:56.370Z,6.10
2018-08-04T13:07:24.952Z,5.70
2018-08-04T13:09:53.830Z,6.27
2018-08-04T13:12:22.385Z,6.00
2018-08-04T13:14:50.852Z,5.37
2018-08-04T13:17:19.314Z,6.13
2018-08-04T13:19:47.836Z,6.60
2018-08-04T13:22:16.357Z,6.20
2018-08-04T13:24:44.812Z,5.53
2018-08-04T13:27:13.432Z,5.30
2018-08-04T13:29:42.023Z,6.10
2018-08-04T13:32:10.513Z,5.60
2018-08-04T13:34:39.030Z,6.23
2018-08-04T13:37:07.995Z,5.53
2018-08-04T13:39:36.487Z,5.00
2018-08-04T13:42:05.047Z,6.13
2018-08-04T13:44:33.518Z,5.77
2018-08-04T13:47:02.059Z,7.00
2018-08-04T13:49:30.622Z,6.20
2018-08-04T13:51:59.205Z,6.40
2018-08-04T13:54:27.693Z,6.03
2018-08-04T13:56:56.177Z,5.60
2018-08-04T13:59:24.824Z,6.70
2018-08-04T14:01:53.358Z,5.30
2018-08-04T14:04:21.853Z,6.00
2018-08-04T14:06:50.475Z,6.17
2018-08-04T14:09:18.990Z,6.37
2018-08-04T14:11:47.510Z,5.53
2018-08-04T14:14:16.061Z,5.93
2018-08-04T14:16:44.624Z,5.80
2018-08-04T14:19:13.286Z,6.53
2018-08-04T14:21:41.857Z,5.73
2018-08-04T14:24:10.442Z,5.27
2018-08-04T14:26:39.117Z,6.07
2018-08-04T14:29:07.823Z,6.10
2018-08-04T14:31:36.362Z,5.50
2018-08-04T14:34:05.134Z,7.10
2018-08-04T14:36:33.960Z,5.70
2018-08-04T14:39:02.591Z,5.97
2018-08-04T14:41:31.200Z,5.87
2018-08-04T14:43:59.672Z,6.17
2018-08-04T14:46:28.176Z,7.27
2018-08-04T14:48:56.669Z,5.47
2018-08-04T14:51:25.213Z,6.40
2018-08-04T14:53:53.771Z,6.53
2018-08-04T14:56:22.259Z,6.83
2018-08-04T14:58:50.775Z,6.23
2018-08-04T15:01:19.260Z,6.40
2018-08-04T15:03:47.795Z,6.33
2018-08-04T15:06:16.339Z,6.30
2018-08-04T15:08:44.814Z,6.03
2018-08-04T15:11:13.407Z,6.60
2018-08-04T15:13:41.877Z,7.03
2018-08-04T15:16:10.483Z,6.60
2018-08-04T15:18:39.068Z,6.17
2018-08-04T15:21:07.859Z,6.47
2018-08-04T15:23:36.958Z,6.53
2018-08-04T15:26:05.498Z,6.30
2018-08-04T15:28:33.981Z,6.27
2018-08-04T15:31:02.518Z,6.53
2018-08-04T15:33:31.108Z,6.80
2018-08-04T15:35:59.595Z,6.90
2018-08-04T15:38:28.134Z,6.57
2018-08-04T15:40:56.643Z,6.90
2018-08-04T15:43:25.110Z,7.70
2018-08-04T15:45:53.595Z,8.23
2018-08-04T15:48:22.131Z,7.13
2018-08-04T15:50:50.632Z,7.93
2018-08-04T15:53:19.121Z,7.57
2018-08-04T15:55:47.893Z,7.67
2018-08-04T15:58:16.427Z,7.63
2018-08-04T16:00:44.961Z,9.10
2018-08-04T16:03:13.540Z,8.40
2018-08-04T16:05:42.028Z,8.30
2018-08-04T16:08:10.517Z,9.00
2018-08-04T16:10:39.008Z,8.50
2018-08-04T16:13:07.475Z,7.60
2018-08-04T16:15:36.083Z,8.57
2018-08-04T16:18:04.983Z,8.40
2018-08-04T16:20:33.531Z,9.83
2018-08-04T16:23:02.050Z,7.70
2018-08-04T16:25:30.739Z,7.80
2018-08-04T16:27:59.431Z,8.50
2018-08-04T16:30:28.392Z,8.80
2018-08-04T16:32:56.887Z,7.70
2018-08-04T16:35:25.354Z,8.37
2018-08-04T16:37:53.841Z,7.57
2018-08-04T16:40:22.367Z,8.90
2018-08-04T16:42:50.854Z,8.23
2018-08-04T16:45:19.312Z,7.93
2018-08-04T16:47:47.800Z,7.63
2018-08-04T16:50:16.300Z,7.27
2018-08-04T16:52:44.810Z,7.00
2018-08-04T16:55:13.314Z,7.73
2018-08-04T16:57:41.854Z,8.17
2018-08-04T17:00:10.416Z,7.83
2018-08-04T17:02:39.050Z,8.57
2018-08-04T17:05:07.520Z,8.20
2018-08-04T17:07:36.022Z,7.90
2018-08-04T17:10:04.614Z,8.20
2018-08-04T17:12:33.080Z,8.20
2018-08-04T17:15:01.592Z,7.53
2018-08-04T17:17:30.086Z,8.07
2018-08-04T17:19:59.099Z,8.20
2018-08-04T17:22:27.616Z,7.60
2018-08-04T17:24:56.143Z,7.17
2018-08-04T17:27:24.894Z,8.37
2018-08-04T17:29:53.497Z,8.63
2018-08-04T17:32:21.995Z,8.07
2018-08-04T17:34:50.448Z,8.17
2018-08-04T17:37:18.705Z,8.67
2018-08-04T17:39:47.229Z,8.10
2018-08-04T17:42:15.753Z,8.60
2018-08-04T17:44:44.324Z,9.17
2018-08-04T17:47:12.849Z,7.13
2018-08-04T17:49:41.333Z,8.50
2018-08-04T17:52:09.819Z,8.83
2018-08-04T17:54:38.812Z,9.00
2018-08-04T17:57:07.352Z,8.17
2018-08-04T17:59:35.838Z,8.87
2018-08-04T18:02:04.068Z,8.43
2018-08-04T18:04:32.563Z,9.30
2018-08-04T18:07:01.047Z,9.57
2018-08-04T18:09:29.556Z,8.47
2018-08-04T18:11:58.094Z,7.70
2018-08-04T18:14:26.612Z,8.73
2018-08-04T18:16:55.160Z,8.40
2018-08-04T18:19:23.672Z,8.20
2018-08-04T18:21:52.208Z,8.77
2018-08-04T18:24:20.822Z,8.87
2018-08-04T18:26:49.383Z,8.17
2018-08-04T18:29:17.844Z,8.27
2018-08-04T18:31:46.429Z,7.67
2018-08-04T18:34:14.956Z,10.00
2018-08-04T18:36:43.514Z,9.00
2018-08-04T18:39:12.134Z,8.80
2018-08-04T18:41:40.629Z,7.83
2018-08-04T18:44:09.208Z,8.77
2018-08-04T18:46:37.896Z,7.67
2018-08-04T18:49:06.464Z,8.43
2018-08-04T18:51:35.042Z,8.50
2018-08-04T18:54:03.662Z,8.97
2018-08-04T18:56:32.121Z,9.50
2018-08-04T18:59:00.631Z,7.77
2018-08-04T19:01:29.228Z,8.60
2018-08-04T19:03:57.777Z,8.90
2018-08-04T19:06:25.964Z,9.50
2018-08-04T19:08:54.157Z,8.73
2018-08-04T19:11:22.751Z,10.97
2018-08-04T19:13:51.233Z,9.37
2018-08-04T19:16:19.836Z,10.13
2018-08-04T19:18:48.821Z,14.70
2018-08-04T19:21:17.409Z,12.97
2018-08-04T19:23:46.103Z,10.63
2018-08-04T19:26:14.670Z,9.90
2018-08-04T19:28:43.346Z,10.40
2018-08-04T19:31:11.764Z,8.90
2018-08-04T19:33:40.284Z,10.00
2018-08-04T19:36:09.182Z,9.70
2018-08-04T19:38:37.763Z,9.10
2018-08-04T19:41:06.340Z,10.50
2018-08-04T19:43:34.960Z,10.10
2018-08-04T19:46:03.608Z,10.10
2018-08-04T19:48:32.192Z,10.93
2018-08-04T19:51:00.776Z,10.10
2018-08-04T19:53:29.529Z,9.47
2018-08-04T19:55:57.914Z,9.70
2018-08-04T19:58:26.873Z,9.30
2018-08-04T20:00:55.376Z,9.47
2018-08-04T20:03:24.124Z,9.50
2018-08-04T20:05:52.872Z,9.57
2018-08-04T20:08:21.982Z,11.13
2018-08-04T20:10:50.710Z,9.27
2018-08-04T20:13:19.513Z,9.90
2018-08-04T20:15:48.152Z,10.07
2018-08-04T20:18:16.798Z,9.63
2018-08-04T20:20:45.462Z,9.23
2018-08-04T20:23:14.566Z,10.97
2018-08-04T20:25:43.949Z,10.67
2018-08-04T20:28:12.265Z,10.27
2018-08-04T20:30:40.946Z,11.93
2018-08-04T20:33:09.769Z,11.10
2018-08-04T20:35:38.441Z,12.30
2018-08-04T20:38:07.017Z,12.20
2018-08-04T20:40:35.536Z,11.57
2018-08-04T20:43:04.092Z,11.87
2018-08-04T20:45:32.669Z,12.20
2018-08-04T20:48:01.257Z,11.43
2018-08-04T20:50:30.279Z,12.70
2018-08-04T20:52:58.952Z,13.90
2018-08-04T20:55:27.422Z,12.50
2018-08-04T20:57:56.031Z,13.30
2018-08-04T21:00:24.634Z,13.03
2018-08-04T21:02:53.156Z,13.20
2018-08-04T21:05:21.755Z,12.70
2018-08-04T21:07:50.377Z,13.37
2018-08-04T21:10:18.919Z,10.67
2018-08-04T21:12:47.745Z,10.23
2018-08-04T21:15:16.292Z,10.17
2018-08-04T21:17:44.939Z,10.00
2018-08-04T21:20:13.542Z,9.90
2018-08-04T21:22:42.110Z,12.80
2018-08-04T21:25:10.801Z,11.50
2018-08-04T21:27:39.397Z,11.20
2018-08-04T21:30:07.924Z,11.10
2018-08-04T21:32:36.423Z,11.33
2018-08-04T21:35:04.783Z,10.90
2018-08-04T21:37:33.268Z,9.53
2018-08-04T21:40:01.903Z,12.80
2018-08-04T21:42:30.505Z,11.80
2018-08-04T21:44:59.109Z,11.00
2018-08-04T21:47:27.681Z,11.30
2018-08-04T21:49:56.209Z,10.40
2018-08-04T21:52:25.335Z,9.70
2018-08-04T21:54:53.859Z,10.70
2018-08-04T21:57:22.547Z,10.83
2018-08-04T21:59:51.052Z,10.70
2018-08-04T22:02:19.607Z,11.83
2018-08-04T22:04:48.115Z,10.60
2018-08-04T22:07:53.803Z,10.33
2018-08-04T22:10:22.374Z,10.37
2018-08-04T22:12:50.925Z,9.93
2018-08-04T22:15:19.394Z,10.33
2018-08-04T22:17:47.938Z,11.00
2018-08-04T22:20:17.762Z,9.77
2018-08-04T22:22:46.418Z,10.53
2018-08-04T22:25:17.302Z,11.30
2018-08-04T22:27:46.787Z,10.60
2018-08-04T22:30:16.641Z,11.77
2018-08-04T22:32:45.653Z,10.60
2018-08-04T22:35:14.261Z,11.33
2018-08-04T22:37:43.043Z,11.50
2018-08-04T22:40:12.754Z,11.23
2018-08-04T22:42:41.464Z,13.60
2018-08-04T22:46:22.376Z,12.90
2018-08-04T22:48:52.011Z,20.87
2018-08-04T22:51:24.976Z,40.53
2018-08-04T22:53:53.434Z,21.00
2018-08-04T22:56:22.021Z,18.33
2018-08-04T22:58:50.911Z,22.70
2018-08-04T23:01:19.401Z,27.03
2018-08-04T23:03:47.961Z,15.57
2018-08-04T23:06:16.611Z,12.50
2018-08-04T23:08:46.197Z,11.50
2018-08-04T23:11:14.496Z,12.97
2018-08-04T23:13:43.025Z,11.27
2018-08-04T23:16:11.552Z,24.20
2018-08-04T23:18:40.060Z,25.00
2018-08-04T23:21:08.644Z,18.23
2018-08-04T23:23:37.231Z,14.70
2018-08-04T23:26:06.130Z,28.73
2018-08-04T23:28:34.652Z,33.60
2018-08-04T23:31:03.108Z,25.47
2018-08-04T23:33:31.580Z,23.90
2018-08-04T23:36:00.271Z,20.23
2018-08-04T23:38:28.770Z,18.10
2018-08-04T23:40:57.356Z,14.87
2018-08-04T23:43:25.878Z,13.87
2018-08-04T23:45:54.410Z,12.77
2018-08-04T23:48:22.974Z,12.03
2018-08-04T23:50:51.287Z,11.33
2018-08-04T23:53:19.773Z,11.03
2018-08-04T23:55:48.362Z,11.90
2018-08-04T23:58:16.951Z,10.90
